Time;durP1;ratioP1;P1;durP2;ratioP2;P2;SDS_P1;SDS_P2;PMS_P1;PMS_P2;Temp;Humidity;BMP_temperature;BMP_pressure;BME280_temperature;BME280_humidity;BME280_pressure;Samples;Min_cycle;Max_cycle;Signal;HPM_P1;HPM_P2
2022/01/04 00:00:38;;;;;;;7.10;3.50;;;;;;;5.41;89.44;98061.63;104117;1287;25583;-65
2022/01/04 00:03:06;;;;;;;9.70;4.00;;;;;;;5.42;89.47;98066.94;108170;1286;138407;-66
2022/01/04 00:05:34;;;;;;;9.00;3.20;;;;;;;5.43;89.65;98069.53;108310;1286;23173;-66
2022/01/04 00:08:07;;;;;;;4.80;3.10;;;;;;;5.43;89.54;98070.18;108371;1285;23275;-66
2022/01/04 00:11:05;;;;;;;5.90;3.40;;;;;;;5.43;89.62;98071.69;108410;1283;137576;-67
2022/01/04 00:13:33;;;;;;;6.60;3.80;;;;;;;5.44;89.14;98068.84;108571;1283;22448;-66
2022/01/04 00:16:03;;;;;;;5.00;2.80;;;;;;;5.45;89.20;98065.23;108451;1283;137291;-67
2022/01/04 00:18:31;;;;;;;4.80;3.30;;;;;;;5.46;89.02;98073.88;108552;1283;22457;-66
2022/01/04 00:20:59;;;;;;;4.40;2.80;;;;;;;5.47;89.02;98080.27;108456;1283;138568;-66
2022/01/04 00:23:27;;;;;;;5.30;3.00;;;;;;;5.49;89.28;98087.17;108573;1283;22517;-67
2022/01/04 00:25:55;;;;;;;5.40;2.90;;;;;;;5.49;88.79;98090.14;108493;1283;22501;-66
2022/01/04 00:28:23;;;;;;;6.90;3.40;;;;;;;5.49;88.53;98095.81;108406;1284;137579;-66
2022/01/04 00:30:51;;;;;;;5.90;2.60;;;;;;;5.49;88.62;98095.81;108500;1284;22649;-66
2022/01/04 00:33:19;;;;;;;3.80;2.30;;;;;;;5.48;88.57;98097.88;108312;1284;138626;-66
2022/01/04 00:35:47;;;;;;;6.00;2.60;;;;;;;5.48;88.52;98096.36;108480;1284;22436;-66
2022/01/04 00:38:16;;;;;;;4.80;2.90;;;;;;;5.48;88.53;98102.46;108532;1284;23591;-66
2022/01/04 00:40:43;;;;;;;5.10;2.50;;;;;;;5.48;88.58;98102.46;108395;1284;138440;-65
2022/01/04 00:43:11;;;;;;;6.50;2.80;;;;;;;5.47;88.51;98100.09;108476;1284;22691;-65
2022/01/04 00:45:39;;;;;;;4.50;2.40;;;;;;;5.47;88.38;98108.08;108397;1284;138213;-65
2022/01/04 00:50:51;;;;;;;3.80;2.40;;;;;;;5.44;88.59;98112.88;108428;1286;22442;-66
2022/01/04 00:53:19;;;;;;;4.80;2.40;;;;;;;5.44;88.62;98109.89;108342;1284;138489;-66
2022/01/04 00:55:47;;;;;;;4.50;2.60;;;;;;;5.41;88.23;98112.09;108504;1284;22456;-66
2022/01/04 00:58:15;;;;;;;3.60;2.50;;;;;;;5.41;88.40;98112.52;108408;1284;137891;-66
2022/01/04 01:00:43;;;;;;;5.00;2.60;;;;;;;5.40;88.51;98108.67;108483;1284;22461;-66
2022/01/04 01:03:12;;;;;;;4.20;2.60;;;;;;;5.40;88.58;98110.89;108373;1284;137630;-66
2022/01/04 01:05:41;;;;;;;3.70;2.50;;;;;;;5.38;88.37;98111.95;108519;1284;22415;-66
2022/01/04 01:08:09;;;;;;;3.30;2.30;;;;;;;5.35;88.23;98113.23;108499;1285;22892;-65
2022/01/04 01:10:57;;;;;;;5.30;2.80;;;;;;;5.33;88.49;98113.38;108391;1286;137548;-66
2022/01/04 01:13:25;;;;;;;4.40;2.70;;;;;;;5.29;88.37;98109.95;108432;1286;22599;-66
2022/01/04 01:16:13;;;;;;;5.10;2.70;;;;;;;5.28;88.44;98114.36;108344;1285;137518;-66
2022/01/04 01:18:42;;;;;;;6.30;2.50;;;;;;;5.28;88.55;98115.56;108287;1286;22490;-66
2022/01/04 01:21:30;;;;;;;6.20;3.00;;;;;;;5.26;88.44;98110.79;108398;1284;137707;-66
2022/01/04 01:23:58;;;;;;;4.70;3.00;;;;;;;5.26;88.55;98113.96;108442;1286;23167;-66
2022/01/04 01:26:26;;;;;;;5.00;2.50;;;;;;;5.24;88.89;98117.67;108472;1286;22546;-66
2022/01/04 01:28:55;;;;;;;5.10;2.80;;;;;;;5.23;88.84;98117.99;108367;1285;137722;-66
2022/01/04 01:31:24;;;;;;;4.90;2.40;;;;;;;5.22;88.65;98116.96;108489;1285;22467;-66
2022/01/04 01:33:53;;;;;;;4.70;2.30;;;;;;;5.23;88.82;98117.71;108365;1285;137652;-66
2022/01/04 01:36:24;;;;;;;3.90;2.30;;;;;;;5.23;88.38;98117.99;108465;1285;22657;-66
2022/01/04 01:38:52;;;;;;;3.80;2.40;;;;;;;5.23;88.38;98119.62;108486;1286;23300;-66
2022/01/04 01:41:20;;;;;;;4.30;2.70;;;;;;;5.23;88.95;98126.31;104403;1286;137341;-66
2022/01/04 01:43:48;;;;;;;4.40;2.00;;;;;;;5.23;88.74;98127.81;103999;1286;22566;-66
2022/01/04 01:46:16;;;;;;;4.90;2.10;;;;;;;5.21;88.74;98126.98;104060;1284;138608;-66
2022/01/04 01:48:44;;;;;;;5.30;2.80;;;;;;;5.19;88.85;98129.52;104109;1287;22592;-65
2022/01/04 01:51:16;;;;;;;7.10;3.40;;;;;;;5.16;88.55;98130.70;104036;1287;138699;-65
2022/01/04 01:53:44;;;;;;;6.10;2.80;;;;;;;5.15;88.55;98129.00;108287;1286;23342;-66
2022/01/04 01:56:12;;;;;;;5.80;3.00;;;;;;;5.15;89.05;98132.08;108203;1286;22465;-66
2022/01/04 01:58:40;;;;;;;6.00;2.90;;;;;;;5.15;88.74;98129.60;108280;1286;138500;-66
2022/01/04 02:01:09;;;;;;;5.00;2.80;;;;;;;5.16;89.04;98129.45;108243;1286;22616;-66
2022/01/04 02:03:39;;;;;;;5.30;2.50;;;;;;;5.17;88.71;98126.71;108290;1286;137706;-66
2022/01/04 02:06:07;;;;;;;3.50;2.10;;;;;;;5.18;88.91;98131.14;108305;1285;22464;-66
2022/01/04 02:08:35;;;;;;;2.30;1.90;;;;;;;5.18;88.82;98131.52;108981;1278;22470;-66
2022/01/04 02:11:03;;;;;;;4.00;2.10;;;;;;;5.18;88.99;98132.77;109027;1278;137355;-67
2022/01/04 02:13:32;;;;;;;5.10;1.80;;;;;;;5.18;89.18;98131.36;109061;1277;22469;-66
2022/01/04 02:15:59;;;;;;;3.90;2.10;;;;;;;5.18;89.11;98136.81;109076;1277;138649;-66
2022/01/04 02:18:29;;;;;;;5.00;2.50;;;;;;;5.18;88.84;98135.04;109142;1277;22464;-66
2022/01/04 02:20:56;;;;;;;3.30;2.10;;;;;;;5.19;89.06;98139.02;109176;1277;23199;-66
2022/01/04 02:23:24;;;;;;;3.10;2.10;;;;;;;5.20;89.53;98137.84;109068;1278;137622;-66
2022/01/04 02:25:52;;;;;;;3.00;2.00;;;;;;;5.20;89.14;98133.14;109159;1277;22567;-67
2022/01/04 02:28:20;;;;;;;3.30;1.80;;;;;;;5.20;89.24;98133.09;109048;1277;137726;-66
2022/01/04 02:30:49;;;;;;;4.00;1.80;;;;;;;5.20;89.34;98134.92;108937;1277;22880;-66
2022/01/04 02:33:17;;;;;;;3.20;1.70;;;;;;;5.20;89.17;98137.52;109025;1277;138223;-66
2022/01/04 02:35:45;;;;;;;2.20;1.70;;;;;;;5.18;88.95;98141.23;109194;1277;23386;-65
2022/01/04 02:38:12;;;;;;;3.30;1.90;;;;;;;5.16;88.99;98143.16;109161;1277;22571;-66
2022/01/04 02:40:41;;;;;;;6.20;1.90;;;;;;;5.15;89.00;98145.10;109058;1277;137642;-66
2022/01/04 02:43:10;;;;;;;3.50;1.80;;;;;;;5.13;89.17;98142.21;109174;1277;22423;-65
2022/01/04 02:45:37;;;;;;;2.70;1.70;;;;;;;5.10;89.02;98144.77;109058;1277;138410;-66
2022/01/04 02:48:05;;;;;;;2.10;1.70;;;;;;;5.08;88.97;98144.52;109055;1279;22512;-66
2022/01/04 02:50:33;;;;;;;2.20;1.50;;;;;;;5.07;88.82;98143.44;109051;1279;23328;-67
2022/01/04 02:53:01;;;;;;;2.80;1.70;;;;;;;5.06;88.84;98146.66;108947;1280;138552;-66
2022/01/04 02:55:30;;;;;;;6.40;2.30;;;;;;;5.04;88.62;98149.00;109192;1277;22493;-67
2022/01/04 02:57:58;;;;;;;4.10;2.10;;;;;;;5.03;89.01;98149.36;109033;1277;138061;-66
2022/01/04 03:00:26;;;;;;;2.60;1.50;;;;;;;5.00;88.79;98149.98;109211;1278;22513;-66
2022/01/04 03:02:55;;;;;;;4.70;2.00;;;;;;;4.98;88.65;98150.44;109197;1277;23250;-67
2022/01/04 03:05:23;;;;;;;3.60;1.80;;;;;;;4.98;88.75;98154.55;108863;1278;137511;-66
2022/01/04 03:07:51;;;;;;;3.50;1.60;;;;;;;4.99;88.72;98154.55;109192;1277;22508;-66
2022/01/04 03:10:20;;;;;;;2.20;1.40;;;;;;;5.00;89.08;98161.52;109087;1277;137794;-66
2022/01/04 03:12:48;;;;;;;5.00;2.30;;;;;;;5.00;88.81;98159.63;109143;1277;23401;-66
2022/01/04 03:15:16;;;;;;;5.30;2.80;;;;;;;4.98;88.98;98157.25;108962;1277;138047;-57
2022/01/04 03:17:43;;;;;;;5.60;2.70;;;;;;;4.97;88.75;98158.31;104850;1277;22620;-56
2022/01/04 03:20:11;;;;;;;4.00;1.90;;;;;;;4.95;88.77;98155.20;109190;1277;23349;-57
2022/01/04 03:22:40;;;;;;;5.80;2.40;;;;;;;4.93;88.51;98158.80;109175;1277;138430;-57
2022/01/04 03:25:08;;;;;;;6.20;2.30;;;;;;;4.92;88.41;98163.70;109210;1276;23367;-57
2022/01/04 03:27:38;;;;;;;3.60;2.30;;;;;;;4.90;88.74;98165.10;109157;1277;138954;-58
2022/01/04 03:30:06;;;;;;;3.10;2.00;;;;;;;4.90;88.54;98170.29;109225;1277;22434;-57
2022/01/04 03:32:35;;;;;;;2.50;1.70;;;;;;;4.88;88.58;98171.78;109127;1277;22492;-57
2022/01/04 03:35:04;;;;;;;3.60;2.30;;;;;;;4.88;88.49;98177.30;109122;1277;137682;-57
2022/01/04 03:37:32;;;;;;;4.20;1.80;;;;;;;4.89;88.66;98176.92;109206;1277;22438;-57
2022/01/04 03:40:00;;;;;;;3.20;1.80;;;;;;;4.90;88.88;98171.58;109013;1277;137648;-57
2022/01/04 03:42:28;;;;;;;2.90;1.80;;;;;;;4.90;88.86;98174.55;109201;1277;26390;-57
2022/01/04 03:44:56;;;;;;;5.20;2.90;;;;;;;4.90;88.42;98182.33;109155;1277;22461;-57
2022/01/04 03:47:24;;;;;;;5.00;2.90;;;;;;;4.91;88.63;98184.96;109174;1277;137546;-57
2022/01/04 03:49:52;;;;;;;6.00;3.10;;;;;;;4.91;88.82;98190.90;109311;1277;22439;-57
2022/01/04 03:52:37;;;;;;;8.40;3.10;;;;;;;4.91;88.62;98194.73;109129;1277;137928;-57
2022/01/04 03:55:06;;;;;;;8.00;2.70;;;;;;;4.90;88.61;98196.94;109254;1277;23448;-57
2022/01/04 03:57:36;;;;;;;7.70;3.30;;;;;;;4.90;88.91;98200.61;109082;1277;137862;-58
2022/01/04 04:00:05;;;;;;;8.60;4.20;;;;;;;4.90;88.65;98199.05;109158;1278;22463;-58
2022/01/04 04:02:39;;;;;;;6.10;2.80;;;;;;;4.89;88.65;98198.98;109259;1277;23374;-58
2022/01/04 04:05:07;;;;;;;6.80;3.50;;;;;;;4.89;89.00;98202.77;109157;1277;141341;-58
2022/01/04 04:07:42;;;;;;;6.30;2.90;;;;;;;4.89;88.84;98206.55;109227;1277;23210;-58
2022/01/04 04:10:12;;;;;;;5.10;3.00;;;;;;;4.88;88.86;98203.14;109126;1277;138545;-58
2022/01/04 04:12:41;;;;;;;6.30;3.30;;;;;;;4.88;88.89;98204.87;109173;1277;22529;-58
2022/01/04 04:15:09;;;;;;;6.00;3.70;;;;;;;4.87;89.11;98211.21;109138;1277;138145;-58
2022/01/04 04:17:37;;;;;;;7.30;3.80;;;;;;;4.85;89.27;98212.88;109149;1277;22502;-58
2022/01/04 04:20:06;;;;;;;7.60;4.30;;;;;;;4.84;89.09;98216.90;109183;1276;22456;-58
2022/01/04 04:22:35;;;;;;;9.20;5.20;;;;;;;4.84;89.38;98216.48;109097;1277;138133;-58
2022/01/04 04:25:03;;;;;;;7.40;4.20;;;;;;;4.86;89.66;98217.89;109278;1277;23293;-58
2022/01/04 04:27:39;;;;;;;6.70;3.60;;;;;;;4.88;89.76;98222.19;104608;1278;139549;-56
2022/01/04 04:30:08;;;;;;;9.80;3.60;;;;;;;4.89;89.93;98219.99;104795;1277;22697;-57
2022/01/04 04:32:38;;;;;;;5.00;2.60;;;;;;;4.90;90.07;98219.25;109303;1277;22429;-55
2022/01/04 04:35:07;;;;;;;7.10;4.00;;;;;;;4.91;90.13;98219.34;109073;1277;138965;-56
2022/01/04 04:37:35;;;;;;;10.00;4.70;;;;;;;4.93;90.17;98222.81;109264;1277;23303;-56
2022/01/04 04:40:03;;;;;;;6.70;4.30;;;;;;;4.92;90.28;98221.95;109184;1277;138699;-56
2022/01/04 04:42:32;;;;;;;6.80;4.30;;;;;;;4.93;90.36;98224.22;109132;1277;23204;-56
2022/01/04 04:45:00;;;;;;;6.90;4.50;;;;;;;4.92;90.53;98224.48;109276;1277;23143;-58
2022/01/04 04:47:28;;;;;;;6.40;4.80;;;;;;;4.92;90.26;98231.27;109147;1277;137685;-58
2022/01/04 04:49:57;;;;;;;7.70;5.00;;;;;;;4.90;90.56;98229.12;109232;1277;22470;-58
2022/01/04 04:52:25;;;;;;;7.30;4.70;;;;;;;4.90;90.82;98226.38;109150;1277;138677;-58
2022/01/04 04:54:52;;;;;;;8.40;5.20;;;;;;;4.90;90.67;98229.17;109233;1277;22446;-58
2022/01/04 04:57:20;;;;;;;5.00;4.10;;;;;;;4.91;90.76;98232.84;108998;1277;138448;-56
2022/01/04 04:59:49;;;;;;;7.60;4.80;;;;;;;4.91;90.93;98230.25;109251;1277;23284;-56
2022/01/04 05:02:17;;;;;;;7.90;4.80;;;;;;;4.92;90.77;98234.41;109161;1275;23503;-56
2022/01/04 05:04:45;;;;;;;7.10;4.80;;;;;;;4.93;90.86;98240.09;109130;1277;137851;-56
2022/01/04 05:07:13;;;;;;;8.60;5.30;;;;;;;4.94;90.86;98242.09;109277;1277;22419;-55
2022/01/04 05:09:41;;;;;;;10.90;5.40;;;;;;;4.95;91.09;98246.21;109159;1277;138265;-56
2022/01/04 05:12:09;;;;;;;8.90;5.30;;;;;;;4.95;90.88;98250.48;109288;1277;23492;-56
2022/01/04 05:14:39;;;;;;;8.10;5.30;;;;;;;4.95;91.05;98251.19;109216;1277;23452;-56
2022/01/04 05:17:06;;;;;;;11.80;4.90;;;;;;;4.95;91.20;98251.02;109121;1277;137788;-55
2022/01/04 05:19:36;;;;;;;7.60;5.20;;;;;;;4.94;91.02;98253.65;109297;1277;22437;-56
2022/01/04 05:22:07;;;;;;;7.60;4.90;;;;;;;4.95;90.98;98253.72;109150;1276;138411;-56
2022/01/04 05:24:46;;;;;;;9.00;4.90;;;;;;;4.94;91.09;98253.66;109277;1277;23584;-56
2022/01/04 05:27:15;;;;;;;6.40;4.70;;;;;;;4.93;90.93;98258.44;109178;1277;139268;-57
2022/01/04 05:29:42;;;;;;;8.70;5.00;;;;;;;4.90;91.23;98263.23;109226;1277;22459;-57
2022/01/04 05:32:11;;;;;;;8.20;5.10;;;;;;;4.89;90.80;98265.82;109259;1277;22547;-58
2022/01/04 05:34:39;;;;;;;8.70;5.10;;;;;;;4.91;91.23;98269.22;109185;1277;138315;-58
2022/01/04 05:37:06;;;;;;;10.10;5.50;;;;;;;4.92;91.72;98272.31;109248;1277;22494;-58
2022/01/04 05:39:34;;;;;;;11.30;7.50;;;;;;;4.94;91.32;98277.95;109174;1277;138482;-58
2022/01/04 05:42:04;;;;;;;7.70;5.30;;;;;;;4.95;91.46;98280.05;109257;1277;22445;-58
2022/01/04 05:44:32;;;;;;;9.60;5.00;;;;;;;4.95;91.54;98282.33;109263;1277;22453;-59
2022/01/04 05:47:00;;;;;;;5.20;4.10;;;;;;;4.94;91.25;98286.09;109187;1277;137964;-58
2022/01/04 05:49:28;;;;;;;8.70;5.20;;;;;;;4.92;91.27;98288.50;109252;1277;22515;-58
2022/01/04 05:51:57;;;;;;;6.10;4.80;;;;;;;4.93;91.08;98290.28;109180;1277;139184;-58
2022/01/04 05:54:25;;;;;;;7.70;4.90;;;;;;;4.93;91.57;98290.45;109288;1276;22516;-58
2022/01/04 05:56:53;;;;;;;6.30;4.70;;;;;;;4.93;91.42;98297.73;106092;1277;25436;-57
2022/01/04 05:59:21;;;;;;;9.60;4.80;;;;;;;4.93;91.24;98296.49;109066;1277;137657;-58
2022/01/04 06:01:49;;;;;;;8.00;4.90;;;;;;;4.93;91.27;98301.73;109301;1277;22438;-58
2022/01/04 06:04:17;;;;;;;8.00;5.50;;;;;;;4.92;91.32;98303.02;109120;1277;138777;-57
2022/01/04 06:06:46;;;;;;;13.90;6.60;;;;;;;4.92;91.23;98307.27;109297;1277;22415;-58
2022/01/04 06:09:28;;;;;;;9.60;6.80;;;;;;;4.93;91.26;98307.23;109041;1277;138306;-58
2022/01/04 06:12:01;;;;;;;7.70;5.20;;;;;;;4.92;91.45;98307.66;109291;1277;22469;-58
2022/01/04 06:17:16;;;;;;;11.10;7.50;;;;;;;4.93;91.43;98317.81;109069;1277;138118;-58
2022/01/04 06:19:44;;;;;;;11.80;8.10;;;;;;;4.92;91.33;98315.21;109232;1277;22479;-58
2022/01/04 06:22:12;;;;;;;11.40;7.40;;;;;;;4.92;91.20;98320.56;109185;1277;138265;-58
2022/01/04 06:24:40;;;;;;;11.40;7.80;;;;;;;4.93;91.42;98323.44;109204;1277;22568;-58
2022/01/04 06:27:09;;;;;;;13.30;8.00;;;;;;;4.94;91.02;98328.52;109148;1277;138214;-58
2022/01/04 06:29:38;;;;;;;12.70;9.10;;;;;;;4.96;91.17;98327.41;109270;1276;22454;-58
2022/01/04 06:32:09;;;;;;;16.00;10.00;;;;;;;4.96;91.00;98327.36;109155;1277;22535;-58
2022/01/04 06:34:38;;;;;;;13.00;8.50;;;;;;;4.97;90.86;98333.64;109170;1277;138300;-58
2022/01/04 06:37:06;;;;;;;14.30;7.40;;;;;;;4.97;90.63;98337.64;109280;1274;22472;-55
2022/01/04 06:39:34;;;;;;;9.80;6.70;;;;;;;4.96;90.78;98343.93;109003;1277;138532;-56
2022/01/04 06:42:03;;;;;;;12.10;6.10;;;;;;;4.96;90.98;98348.42;109040;1279;23211;-56
2022/01/04 06:44:31;;;;;;;10.30;5.20;;;;;;;4.94;90.51;98345.96;109209;1277;22258;-55
2022/01/04 06:46:59;;;;;;;8.40;4.80;;;;;;;4.92;90.95;98347.45;109052;1277;138241;-56
2022/01/04 06:49:27;;;;;;;8.90;4.60;;;;;;;4.92;91.07;98354.66;109194;1277;22410;-56
2022/01/04 06:51:56;;;;;;;9.70;5.70;;;;;;;4.92;90.75;98358.11;109025;1276;138173;-56
2022/01/04 06:54:24;;;;;;;8.10;4.60;;;;;;;4.91;90.81;98350.83;109162;1277;23361;-55
2022/01/04 06:56:52;;;;;;;7.30;4.50;;;;;;;4.91;90.57;98352.28;109140;1277;22416;-56
2022/01/04 06:59:20;;;;;;;8.80;5.70;;;;;;;4.90;91.00;98353.80;109098;1277;138381;-56
2022/01/04 07:01:48;;;;;;;7.50;5.40;;;;;;;4.91;90.84;98356.65;109198;1277;22534;-55
2022/01/04 07:04:16;;;;;;;10.70;5.50;;;;;;;4.91;91.20;98358.39;109095;1277;139976;-56
2022/01/04 07:06:45;;;;;;;9.40;5.30;;;;;;;4.91;91.05;98358.27;109199;1277;23686;-58
2022/01/04 07:09:14;;;;;;;10.50;5.80;;;;;;;4.90;90.96;98355.64;109117;1277;138072;-58
2022/01/04 07:11:41;;;;;;;9.60;6.00;;;;;;;4.90;91.20;98357.36;109218;1277;22421;-58
2022/01/04 07:14:09;;;;;;;10.60;5.70;;;;;;;4.88;90.91;98358.64;109145;1277;22456;-58
2022/01/04 07:16:37;;;;;;;11.10;5.90;;;;;;;4.88;90.97;98357.83;108933;1277;139262;-58
2022/01/04 07:19:05;;;;;;;9.30;5.80;;;;;;;4.89;91.05;98359.56;109142;1277;22240;-58
2022/01/04 07:21:35;;;;;;;11.50;5.80;;;;;;;4.88;90.79;98357.02;109043;1276;138566;-58
2022/01/04 07:24:04;;;;;;;13.20;5.10;;;;;;;4.89;91.13;98360.38;109153;1277;23272;-58
2022/01/04 07:26:32;;;;;;;12.50;5.60;;;;;;;4.90;90.80;98360.06;109071;1277;22527;-58
2022/01/04 07:29:00;;;;;;;9.90;5.60;;;;;;;4.92;90.90;98360.11;109046;1277;138669;-58
2022/01/04 07:31:28;;;;;;;8.70;5.40;;;;;;;4.93;90.92;98365.27;109145;1277;23431;-58
2022/01/04 07:33:56;;;;;;;17.40;6.00;;;;;;;4.93;90.73;98363.65;109018;1277;138824;-57
2022/01/04 07:36:25;;;;;;;9.10;5.10;;;;;;;4.93;90.77;98361.98;106983;1277;22626;-57
2022/01/04 07:38:53;;;;;;;8.40;4.90;;;;;;;4.93;90.46;98361.86;109128;1277;23263;-58
2022/01/04 07:41:21;;;;;;;9.00;5.10;;;;;;;4.94;90.81;98366.64;109009;1277;137989;-57
2022/01/04 07:43:50;;;;;;;9.40;4.70;;;;;;;4.95;90.40;98365.79;109150;1277;22466;-58
2022/01/04 07:46:18;;;;;;;6.50;4.50;;;;;;;4.96;90.44;98369.25;108890;1279;138399;-58
2022/01/04 07:48:49;;;;;;;8.30;4.70;;;;;;;4.97;90.39;98374.79;109141;1277;22563;-58
2022/01/04 07:51:17;;;;;;;9.00;5.20;;;;;;;4.99;90.12;98375.40;109073;1277;138967;-58
2022/01/04 07:53:45;;;;;;;12.10;5.70;;;;;;;5.00;90.15;98376.55;109196;1277;23364;-58
2022/01/04 07:56:12;;;;;;;9.00;5.10;;;;;;;5.01;90.21;98374.45;109152;1277;23246;-58
2022/01/04 07:58:41;;;;;;;13.40;7.10;;;;;;;5.00;89.58;98372.39;109069;1277;137983;-58
2022/01/04 08:01:09;;;;;;;12.40;7.40;;;;;;;5.01;89.94;98373.80;109121;1277;22477;-58
2022/01/04 08:03:38;;;;;;;15.90;7.70;;;;;;;5.01;89.71;98374.73;109016;1277;138756;-58
2022/01/04 08:06:06;;;;;;;12.80;7.40;;;;;;;5.02;89.70;98377.01;109100;1277;22418;-57
2022/01/04 08:08:35;;;;;;;8.40;4.80;;;;;;;5.03;89.54;98377.52;109112;1277;23382;-58
2022/01/04 08:11:03;;;;;;;10.40;5.00;;;;;;;5.04;89.36;98383.41;109058;1277;137797;-57
2022/01/04 08:13:31;;;;;;;7.30;4.60;;;;;;;5.05;89.34;98386.81;109143;1277;22384;-58
2022/01/04 08:15:59;;;;;;;7.50;4.70;;;;;;;5.05;88.85;98384.81;109059;1277;138464;-58
2022/01/04 08:18:28;;;;;;;10.00;5.30;;;;;;;5.06;89.04;98383.95;109184;1277;24533;-58
2022/01/04 08:20:57;;;;;;;7.90;4.60;;;;;;;5.08;88.57;98380.14;109170;1277;22451;-57
2022/01/04 08:23:25;;;;;;;8.00;5.20;;;;;;;5.10;88.81;98383.52;109001;1277;138040;-58
2022/01/04 08:25:54;;;;;;;8.90;4.90;;;;;;;5.12;88.39;98380.31;109188;1277;22532;-58
2022/01/04 08:28:22;;;;;;;8.50;4.70;;;;;;;5.13;88.35;98372.66;108998;1277;139144;-58
2022/01/04 08:30:50;;;;;;;15.00;6.40;;;;;;;5.16;88.43;98371.63;109178;1277;22410;-56
2022/01/04 08:33:36;;;;;;;10.30;5.40;;;;;;;5.18;88.17;98374.90;109090;1277;138274;-57
2022/01/04 08:36:04;;;;;;;9.80;6.10;;;;;;;5.18;87.99;98378.63;109138;1277;22491;-57
2022/01/04 08:38:32;;;;;;;8.90;4.50;;;;;;;5.19;87.91;98383.10;109158;1277;22508;-57
2022/01/04 08:41:00;;;;;;;10.00;4.60;;;;;;;5.20;87.72;98374.90;109039;1277;138010;-56
2022/01/04 08:43:28;;;;;;;9.50;4.30;;;;;;;5.21;87.67;98375.89;109141;1277;22510;-58
2022/01/04 08:45:55;;;;;;;10.80;4.20;;;;;;;5.23;87.63;98378.34;109093;1277;137933;-58
2022/01/04 08:48:23;;;;;;;9.60;4.60;;;;;;;5.25;87.47;98378.95;109110;1277;23523;-58
2022/01/04 08:50:52;;;;;;;7.90;4.50;;;;;;;5.26;87.21;98379.25;109115;1277;22730;-58
2022/01/04 08:53:19;;;;;;;8.70;4.90;;;;;;;5.27;87.37;98379.97;109140;1277;137754;-58
2022/01/04 08:55:47;;;;;;;9.70;5.40;;;;;;;5.29;86.99;98381.12;109244;1277;22429;-58
2022/01/04 08:58:15;;;;;;;11.50;5.00;;;;;;;5.31;87.15;98387.42;109065;1277;137937;-58
2022/01/04 09:00:43;;;;;;;8.00;4.80;;;;;;;5.33;86.87;98386.10;109296;1276;22456;-58
2022/01/04 09:03:12;;;;;;;6.60;4.30;;;;;;;5.35;86.81;98388.09;109055;1277;138628;-57
2022/01/04 09:05:40;;;;;;;9.60;4.30;;;;;;;5.35;86.80;98383.73;109265;1276;22391;-58
2022/01/04 09:08:07;;;;;;;10.20;4.50;;;;;;;5.36;86.41;98380.82;109112;1277;23170;-58
2022/01/04 09:10:36;;;;;;;8.50;4.40;;;;;;;5.37;86.58;98380.02;109232;1274;138544;-58
2022/01/04 09:13:25;;;;;;;10.20;5.00;;;;;;;5.40;86.68;98383.67;109351;1276;22535;-58
2022/01/04 09:18:43;;;;;;;14.30;6.30;;;;;;;5.46;86.49;98388.78;109324;1276;22620;-58
2022/01/04 09:21:26;;;;;;;13.60;6.60;;;;;;;5.48;86.42;98390.10;109210;1276;139335;-58
2022/01/04 09:23:56;;;;;;;12.50;6.80;;;;;;;5.50;86.11;98396.59;109362;1277;22404;-58
2022/01/04 09:26:24;;;;;;;13.30;6.70;;;;;;;5.52;86.11;98394.19;109350;1274;22472;-58
2022/01/04 09:28:55;;;;;;;14.50;8.70;;;;;;;5.56;86.17;98397.75;109179;1276;140364;-56
2022/01/04 09:31:24;;;;;;;15.90;8.20;;;;;;;5.59;86.42;98399.90;109260;1277;23352;-58
2022/01/04 09:33:53;;;;;;;14.90;9.30;;;;;;;5.65;86.49;98396.27;109116;1276;138882;-58
2022/01/04 09:36:30;;;;;;;16.90;8.40;;;;;;;5.68;86.01;98393.94;109224;1277;22562;-58
2022/01/04 09:38:58;;;;;;;18.60;9.40;;;;;;;5.72;86.20;98392.05;109307;1276;22631;-58
2022/01/04 09:41:26;;;;;;;15.80;9.30;;;;;;;5.75;85.89;98388.99;109235;1274;137576;-59
2022/01/04 09:43:54;;;;;;;13.90;8.50;;;;;;;5.77;85.86;98393.77;109335;1276;23131;-59
2022/01/04 09:46:22;;;;;;;21.80;10.20;;;;;;;5.79;85.79;98396.30;109204;1276;137908;-59
2022/01/04 09:48:50;;;;;;;22.50;12.10;;;;;;;5.80;85.94;98398.71;109213;1277;22476;-59
2022/01/04 09:51:19;;;;;;;14.00;8.10;;;;;;;5.82;85.49;98397.54;109215;1275;139326;-59
2022/01/04 09:53:48;;;;;;;16.60;8.70;;;;;;;5.83;85.44;98400.80;109236;1276;22467;-59
2022/01/04 09:56:16;;;;;;;13.10;7.70;;;;;;;5.84;85.09;98402.27;109346;1277;22498;-59
2022/01/04 09:58:45;;;;;;;12.10;6.90;;;;;;;5.83;85.18;98401.23;109139;1277;138591;-57
2022/01/04 10:01:24;;;;;;;11.20;6.20;;;;;;;5.81;84.96;98397.85;109322;1275;22408;-58
2022/01/04 10:04:12;;;;;;;16.00;7.50;;;;;;;5.80;84.58;98401.79;109370;1274;139091;-59
2022/01/04 10:07:04;;;;;;;13.90;7.40;;;;;;;5.79;84.58;98400.81;109511;1274;22412;-59
2022/01/04 10:09:35;;;;;;;11.50;7.40;;;;;;;5.78;84.05;98399.16;109383;1273;138789;-58
2022/01/04 10:12:10;;;;;;;17.60;7.20;;;;;;;5.78;84.32;98403.11;109496;1273;22404;-59
2022/01/04 10:14:43;;;;;;;10.80;6.10;;;;;;;5.80;84.20;98400.38;109492;1273;22473;-58
2022/01/04 10:17:32;;;;;;;11.70;6.50;;;;;;;5.81;83.81;98405.42;109274;1274;137601;-58
2022/01/04 10:20:00;;;;;;;13.50;7.10;;;;;;;5.80;83.90;98402.88;109468;1274;22439;-59
2022/01/04 10:22:32;;;;;;;13.10;6.40;;;;;;;5.79;83.76;98402.70;109362;1274;138230;-59
2022/01/04 10:25:01;;;;;;;12.10;5.10;;;;;;;5.78;83.36;98406.95;109521;1272;23536;-59
2022/01/04 10:27:33;;;;;;;13.20;4.60;;;;;;;5.74;82.45;98408.33;109330;1274;140244;-59
2022/01/04 10:30:20;;;;;;;9.50;4.00;;;;;;;5.71;81.74;98410.14;109464;1273;23419;-58
2022/01/04 10:33:03;;;;;;;9.40;4.20;;;;;;;5.69;81.20;98412.06;109405;1272;23105;-58
2022/01/04 10:35:41;;;;;;;10.00;4.20;;;;;;;5.69;80.73;98410.27;109339;1274;138934;-61
2022/01/04 10:38:15;;;;;;;10.40;4.60;;;;;;;5.72;81.04;98416.20;109460;1272;22452;-60
2022/01/04 10:40:48;;;;;;;11.20;5.00;;;;;;;5.76;80.73;98419.76;109385;1273;137926;-60
2022/01/04 10:43:19;;;;;;;12.60;4.80;;;;;;;5.78;80.53;98417.60;109455;1273;22541;-58
2022/01/04 10:45:48;;;;;;;11.70;5.90;;;;;;;5.80;80.47;98415.63;109367;1273;139194;-56
2022/01/04 10:48:23;;;;;;;11.00;5.20;;;;;;;5.80;80.55;98417.41;109503;1274;22534;-56
2022/01/04 10:50:59;;;;;;;10.50;5.30;;;;;;;5.79;80.64;98413.66;109471;1274;22452;-56
2022/01/04 10:53:31;;;;;;;12.20;5.50;;;;;;;5.78;80.42;98414.63;109275;1274;138792;-56
2022/01/04 10:56:01;;;;;;;13.30;6.60;;;;;;;5.78;80.98;98408.73;109476;1273;22421;-56
2022/01/04 10:58:32;;;;;;;11.50;6.60;;;;;;;5.76;80.72;98403.70;109321;1274;137909;-56
2022/01/04 11:01:04;;;;;;;13.00;7.20;;;;;;;5.78;80.89;98406.09;109339;1275;22483;-57
2022/01/04 11:03:34;;;;;;;13.80;6.90;;;;;;;5.78;80.99;98406.89;109327;1274;139360;-57
2022/01/04 11:06:09;;;;;;;14.60;6.30;;;;;;;5.79;81.29;98402.70;109432;1274;22431;-57
2022/01/04 11:08:37;;;;;;;12.40;6.60;;;;;;;5.79;80.91;98400.31;109396;1276;23505;-55
2022/01/04 11:11:05;;;;;;;13.70;6.20;;;;;;;5.79;81.38;98400.86;109298;1274;138648;-56
2022/01/04 11:13:33;;;;;;;13.90;6.70;;;;;;;5.80;81.32;98399.58;109353;1275;22452;-56
2022/01/04 11:16:23;;;;;;;15.50;6.40;;;;;;;5.83;81.41;98399.23;109351;1274;139198;-56
2022/01/04 11:18:53;;;;;;;12.40;6.90;;;;;;;5.85;81.61;98406.35;109371;1274;22522;-56
2022/01/04 11:21:25;;;;;;;11.60;6.70;;;;;;;5.85;81.48;98408.83;109303;1274;138511;-56
2022/01/04 11:23:55;;;;;;;19.60;11.50;;;;;;;5.87;81.49;98406.31;109445;1274;22491;-56
2022/01/04 11:26:23;;;;;;;19.70;13.10;;;;;;;5.88;81.71;98407.95;107152;1274;24235;-56
2022/01/04 11:28:52;;;;;;;24.30;12.70;;;;;;;5.90;81.77;98407.24;104969;1274;138076;-58
2022/01/04 11:31:58;;;;;;;15.40;8.40;;;;;;;5.91;81.74;98407.52;105124;1274;22895;-57
2022/01/04 11:35:22;;;;;;;14.60;7.00;;;;;;;5.92;81.47;98396.91;104911;1276;138632;-58
2022/01/04 11:37:51;;;;;;;15.20;7.40;;;;;;;5.90;81.33;98399.67;105072;1274;25354;-58
2022/01/04 11:40:24;;;;;;;19.00;9.60;;;;;;;5.87;81.49;98399.93;104875;1276;138740;-57
2022/01/04 11:43:43;;;;;;;19.70;9.00;;;;;;;5.86;81.41;98404.23;105047;1274;24320;-59
2022/01/04 11:46:11;;;;;;;20.00;9.40;;;;;;;5.86;81.37;98407.42;105004;1274;138087;-59
2022/01/04 11:48:41;;;;;;;19.40;8.80;;;;;;;5.84;80.85;98407.51;109270;1274;22475;-58